createdAt,value
2022-10-17T00:02:25.582Z,25.58
2022-10-17T00:04:52.703Z,24.70
2022-10-17T00:07:19.547Z,31.40
2022-10-17T00:09:46.402Z,28.23
2022-10-17T00:12:13.506Z,24.33
2022-10-17T00:14:40.353Z,25.45
2022-10-17T00:17:07.255Z,27.83
2022-10-17T00:19:34.341Z,24.67
2022-10-17T00:22:01.345Z,22.95
2022-10-17T00:24:29.459Z,24.23
2022-10-17T00:26:56.544Z,27.85
2022-10-17T00:29:23.915Z,24.87
2022-10-17T00:34:29.279Z,24.12
2022-10-17T00:36:56.845Z,22.80
2022-10-17T00:39:25.029Z,32.28
2022-10-17T00:41:52.123Z,28.52
2022-10-17T00:44:28.968Z,25.33
2022-10-17T00:46:57.302Z,25.37
2022-10-17T00:49:26.795Z,24.27
2022-10-17T00:51:56.221Z,25.15
2022-10-17T00:54:26.055Z,24.27
2022-10-17T00:56:53.011Z,27.40
2022-10-17T00:59:21.914Z,24.33
2022-10-17T01:02:10.133Z,23.50
2022-10-17T01:04:37.860Z,28.35
2022-10-17T01:07:05.858Z,28.17
2022-10-17T01:09:32.833Z,21.20
2022-10-17T01:12:18.211Z,27.45
2022-10-17T01:15:03.568Z,27.23
2022-10-17T01:18:01.707Z,20.23
2022-10-17T01:21:06.207Z,20.58
2022-10-17T01:24:00.685Z,24.67
2022-10-17T01:26:44.306Z,21.60
2022-10-17T01:29:26.733Z,28.05
2022-10-17T01:32:15.605Z,21.08
2022-10-17T01:35:03.015Z,21.92
2022-10-17T01:37:50.448Z,23.10
2022-10-17T01:40:21.960Z,22.05
2022-10-17T01:42:57.088Z,24.63
2022-10-17T01:45:42.212Z,25.00
2022-10-17T01:48:15.355Z,22.50
2022-10-17T01:50:46.906Z,22.13
2022-10-17T01:53:18.434Z,23.33
2022-10-17T01:58:26.891Z,25.17
2022-10-17T02:00:55.815Z,23.67
2022-10-17T02:03:24.611Z,20.35
2022-10-17T02:05:51.598Z,24.30
2022-10-17T02:08:26.865Z,21.65
2022-10-17T02:10:59.735Z,22.60
2022-10-17T02:14:01.013Z,22.02
2022-10-17T02:16:35.017Z,22.48
2022-10-17T02:19:06.143Z,33.58
2022-10-17T02:21:39.169Z,29.15
2022-10-17T02:24:12.598Z,21.70
2022-10-17T02:27:11.881Z,20.75
2022-10-17T02:29:52.263Z,18.55
2022-10-17T02:32:50.183Z,28.92
2022-10-17T02:35:21.055Z,21.35
2022-10-17T02:37:48.151Z,19.17
2022-10-17T02:40:17.766Z,17.70
2022-10-17T02:42:46.019Z,19.60
2022-10-17T02:45:14.854Z,22.13
2022-10-17T02:47:47.799Z,21.10
2022-10-17T02:50:15.341Z,23.35
2022-10-17T02:52:56.108Z,26.08
2022-10-17T02:55:32.041Z,23.40
2022-10-17T02:58:09.015Z,23.87
2022-10-17T03:00:39.449Z,20.45
2022-10-17T03:03:21.334Z,23.27
2022-10-17T03:05:48.487Z,21.58
2022-10-17T03:08:15.546Z,25.90
2022-10-17T03:10:42.458Z,21.55
2022-10-17T03:13:10.150Z,19.35
2022-10-17T03:15:38.551Z,27.95
2022-10-17T03:18:05.554Z,29.98
2022-10-17T03:20:33.558Z,25.45
2022-10-17T03:23:00.457Z,29.20
2022-10-17T03:25:28.091Z,23.95
2022-10-17T03:27:55.345Z,30.77
2022-10-17T03:30:22.231Z,22.70
2022-10-17T03:32:50.593Z,30.15
2022-10-17T03:35:17.797Z,19.98
2022-10-17T03:37:45.010Z,18.75
2022-10-17T03:40:13.041Z,28.20
2022-10-17T03:42:40.477Z,23.02
2022-10-17T03:45:08.089Z,21.08
2022-10-17T03:47:35.783Z,19.00
2022-10-17T03:50:03.670Z,20.02
2022-10-17T03:52:31.374Z,22.90
2022-10-17T03:54:58.502Z,21.12
2022-10-17T03:57:25.675Z,23.85
2022-10-17T03:59:52.566Z,20.45
2022-10-17T04:02:19.909Z,23.92
2022-10-17T04:04:47.085Z,21.37
2022-10-17T04:07:14.319Z,22.45
2022-10-17T04:09:42.191Z,22.60
2022-10-17T04:12:10.425Z,22.60
2022-10-17T04:14:37.924Z,23.87
2022-10-17T04:17:04.946Z,27.83
2022-10-17T04:19:33.086Z,23.45
2022-10-17T04:21:59.971Z,22.10
2022-10-17T04:24:27.846Z,25.62
2022-10-17T04:26:56.023Z,22.83
2022-10-17T04:29:24.401Z,26.45
2022-10-17T04:31:52.359Z,26.08
2022-10-17T04:34:19.597Z,27.15
2022-10-17T04:36:47.178Z,21.83
2022-10-17T04:41:47.618Z,26.95
2022-10-17T04:44:14.845Z,25.10
2022-10-17T04:46:44.945Z,26.25
2022-10-17T04:49:14.880Z,23.52
2022-10-17T04:51:45.850Z,30.55
2022-10-17T04:54:17.168Z,25.12
2022-10-17T04:56:44.741Z,27.02
2022-10-17T04:59:11.790Z,21.67
2022-10-17T05:01:39.227Z,24.35
2022-10-17T05:04:06.718Z,24.70
2022-10-17T05:06:33.685Z,23.33
2022-10-17T05:09:04.259Z,30.02
2022-10-17T05:11:31.280Z,31.37
2022-10-17T05:14:00.457Z,27.80
2022-10-17T05:16:28.960Z,28.33
2022-10-17T05:18:57.666Z,26.35
2022-10-17T05:21:27.681Z,26.50
2022-10-17T05:23:55.317Z,26.23
2022-10-17T05:26:23.446Z,29.98
2022-10-17T05:28:52.468Z,30.10
2022-10-17T05:31:20.587Z,22.87
2022-10-17T05:33:47.859Z,34.72
2022-10-17T05:36:14.895Z,26.35
2022-10-17T05:38:42.068Z,26.75
2022-10-17T05:41:10.103Z,30.92
2022-10-17T05:43:39.214Z,28.83
2022-10-17T05:46:06.945Z,28.25
2022-10-17T05:48:35.077Z,33.85
2022-10-17T05:51:05.485Z,40.22
2022-10-17T05:56:03.840Z,33.38
2022-10-17T05:58:48.822Z,28.98
2022-10-17T06:01:17.975Z,36.50
2022-10-17T06:03:45.165Z,32.90
2022-10-17T06:06:13.606Z,41.70
2022-10-17T06:08:41.068Z,46.35
2022-10-17T06:11:10.511Z,35.90
2022-10-17T06:13:39.329Z,33.88
2022-10-17T06:16:08.434Z,27.50
2022-10-17T06:18:35.647Z,36.53
2022-10-17T06:21:08.182Z,28.40
2022-10-17T06:23:36.431Z,27.92
2022-10-17T06:26:05.081Z,30.95
2022-10-17T06:28:32.757Z,29.98
2022-10-17T06:31:00.086Z,31.50
2022-10-17T06:33:27.268Z,30.42
2022-10-17T06:35:55.625Z,25.40
2022-10-17T06:38:23.313Z,35.63
2022-10-17T06:40:51.210Z,27.10
2022-10-17T06:43:18.088Z,36.97
2022-10-17T06:45:48.509Z,25.15
2022-10-17T06:48:16.135Z,30.40
2022-10-17T06:50:43.173Z,26.60
2022-10-17T06:53:10.434Z,27.83
2022-10-17T06:55:38.154Z,25.55
2022-10-17T06:58:06.298Z,21.42
2022-10-17T07:00:34.455Z,16.23
2022-10-17T07:03:02.281Z,21.10
2022-10-17T07:05:29.159Z,20.48
2022-10-17T07:07:56.642Z,21.48
2022-10-17T07:10:23.518Z,17.33
2022-10-17T07:12:50.385Z,19.70
2022-10-17T07:15:17.569Z,19.77
2022-10-17T07:17:48.859Z,20.88
2022-10-17T07:20:16.985Z,16.75
2022-10-17T07:22:44.178Z,18.45
2022-10-17T07:25:11.257Z,28.30
2022-10-17T07:27:38.452Z,17.40
2022-10-17T07:30:06.287Z,21.73
2022-10-17T07:32:33.502Z,21.65
2022-10-17T07:35:00.411Z,21.17
2022-10-17T07:37:27.860Z,20.42
2022-10-17T07:39:56.579Z,14.90
2022-10-17T07:42:23.561Z,18.27
2022-10-17T07:44:51.175Z,21.05
2022-10-17T07:47:19.613Z,18.42
2022-10-17T07:49:47.076Z,22.77
2022-10-17T07:52:14.949Z,15.77
2022-10-17T07:54:41.872Z,17.87
2022-10-17T07:57:08.868Z,13.95
2022-10-17T07:59:37.700Z,20.98
2022-10-17T08:02:04.876Z,15.68
2022-10-17T08:04:31.999Z,16.25
2022-10-17T08:07:11.302Z,18.83
2022-10-17T08:09:47.337Z,14.23
2022-10-17T08:12:14.930Z,20.08
2022-10-17T08:14:42.510Z,17.92
2022-10-17T08:17:09.950Z,19.42
2022-10-17T08:19:40.505Z,20.23
2022-10-17T08:22:08.131Z,20.23
2022-10-17T08:24:35.313Z,17.35
2022-10-17T08:27:02.209Z,24.45
2022-10-17T08:29:29.230Z,17.40
2022-10-17T08:32:01.095Z,18.95
2022-10-17T08:34:29.338Z,15.77
2022-10-17T08:36:56.585Z,15.95
2022-10-17T08:39:23.605Z,18.42
2022-10-17T08:41:54.194Z,23.35
2022-10-17T08:44:45.731Z,22.52
2022-10-17T08:47:36.666Z,18.65
2022-10-17T08:50:06.209Z,19.15
2022-10-17T08:52:47.114Z,21.48
2022-10-17T08:55:40.016Z,18.27
2022-10-17T08:58:28.333Z,22.40
2022-10-17T09:01:14.428Z,16.58
2022-10-17T09:03:51.467Z,15.73
2022-10-17T09:06:25.199Z,24.87
2022-10-17T09:09:13.848Z,20.58
2022-10-17T09:11:57.189Z,26.33
2022-10-17T09:14:48.539Z,21.65
2022-10-17T09:17:21.666Z,24.20
2022-10-17T09:20:13.820Z,19.58
2022-10-17T09:22:46.062Z,14.27
2022-10-17T09:25:16.179Z,17.90
2022-10-17T09:30:44.225Z,20.05
2022-10-17T09:36:00.729Z,15.40
2022-10-17T09:38:36.986Z,16.58
2022-10-17T09:41:15.772Z,14.43
2022-10-17T09:43:56.193Z,12.48
2022-10-17T09:46:32.880Z,16.70
2022-10-17T09:49:03.776Z,15.27
2022-10-17T09:54:01.999Z,14.77
2022-10-17T09:56:29.163Z,21.10
2022-10-17T09:58:57.755Z,26.58
2022-10-17T10:01:31.581Z,16.85
2022-10-17T10:04:13.272Z,14.98
2022-10-17T10:06:43.962Z,12.27
2022-10-17T10:09:31.824Z,12.07
2022-10-17T10:12:01.462Z,18.73
2022-10-17T10:14:33.533Z,15.73
2022-10-17T10:17:02.506Z,9.77
2022-10-17T10:19:38.265Z,14.60
2022-10-17T10:22:16.748Z,11.63
2022-10-17T10:24:43.841Z,10.13
2022-10-17T10:27:14.094Z,14.00
2022-10-17T10:32:28.232Z,15.00
2022-10-17T10:35:01.212Z,15.85
2022-10-17T10:37:41.468Z,13.25
2022-10-17T10:40:23.590Z,13.75
2022-10-17T10:42:53.221Z,12.50
2022-10-17T10:45:46.515Z,11.32
2022-10-17T10:48:24.132Z,9.45
2022-10-17T10:53:35.408Z,12.60
2022-10-17T10:56:21.547Z,14.77
2022-10-17T10:58:55.905Z,9.93
2022-10-17T11:01:29.622Z,9.10
2022-10-17T11:04:18.779Z,6.85
2022-10-17T11:06:46.297Z,10.10
2022-10-17T11:09:24.749Z,8.63
2022-10-17T11:12:14.787Z,11.12
2022-10-17T11:17:17.446Z,11.65
2022-10-17T11:19:51.921Z,10.68
2022-10-17T11:22:29.361Z,9.85
2022-10-17T11:25:00.772Z,9.35
2022-10-17T11:27:29.554Z,13.65
2022-10-17T11:29:58.114Z,8.93
2022-10-17T11:32:32.634Z,10.38
2022-10-17T11:35:26.804Z,13.50
2022-10-17T11:38:02.427Z,8.18
2022-10-17T11:40:33.743Z,8.35
2022-10-17T11:43:03.654Z,8.07
2022-10-17T11:45:35.035Z,8.27
2022-10-17T11:48:06.486Z,14.98
2022-10-17T11:55:53.475Z,8.98
2022-10-17T11:58:37.693Z,10.02
2022-10-17T12:01:26.720Z,9.93
2022-10-17T12:04:21.606Z,12.07
2022-10-17T12:07:15.427Z,10.38
2022-10-17T12:09:49.464Z,7.40
2022-10-17T12:12:28.350Z,10.52
2022-10-17T12:15:24.438Z,6.93
2022-10-17T12:18:16.421Z,6.45
2022-10-17T12:20:43.734Z,9.35
2022-10-17T12:23:10.449Z,10.15
2022-10-17T12:25:48.121Z,8.25
2022-10-17T12:28:39.927Z,10.63
2022-10-17T12:31:23.077Z,11.12
2022-10-17T12:33:58.477Z,12.52
2022-10-17T12:36:30.923Z,6.97
2022-10-17T12:39:03.950Z,9.77
2022-10-17T12:41:39.796Z,9.18
2022-10-17T12:44:22.393Z,11.12
2022-10-17T12:47:10.919Z,13.40
2022-10-17T12:49:39.830Z,6.53
2022-10-17T12:52:18.639Z,19.58
2022-10-17T12:55:12.547Z,9.27
2022-10-17T12:58:00.270Z,6.70
2022-10-17T13:00:59.522Z,11.00
2022-10-17T13:03:35.183Z,4.87
2022-10-17T13:06:05.518Z,7.73
2022-10-17T13:08:34.894Z,7.97
2022-10-17T13:11:01.874Z,19.90
2022-10-17T13:13:49.325Z,10.05
2022-10-17T13:16:33.950Z,8.25
2022-10-17T13:19:02.419Z,7.85
2022-10-17T13:21:30.007Z,8.10
2022-10-17T13:23:56.966Z,12.15
2022-10-17T13:26:26.950Z,6.35
2022-10-17T13:29:02.729Z,10.00
2022-10-17T13:31:35.613Z,9.30
2022-10-17T13:34:04.946Z,12.13
2022-10-17T13:36:33.623Z,5.57
2022-10-17T13:39:07.621Z,13.18
2022-10-17T13:41:38.266Z,7.82
2022-10-17T13:44:14.785Z,7.68
2022-10-17T13:46:45.825Z,7.45
2022-10-17T13:49:18.741Z,11.65
2022-10-17T13:51:48.306Z,12.20
2022-10-17T13:54:33.786Z,12.00
2022-10-17T13:57:01.469Z,9.32
2022-10-17T13:59:37.539Z,9.85
2022-10-17T14:02:05.961Z,6.05
2022-10-17T14:04:56.584Z,10.23
2022-10-17T14:08:10.595Z,7.68
2022-10-17T14:10:37.859Z,7.00
2022-10-17T14:13:07.042Z,6.22
2022-10-17T14:15:35.305Z,8.82
2022-10-17T14:18:07.785Z,13.40
2022-10-17T14:24:14.310Z,16.42
2022-10-17T14:26:52.701Z,6.43
2022-10-17T14:29:31.649Z,7.55
2022-10-17T14:32:11.014Z,9.77
2022-10-17T14:34:39.649Z,13.40
2022-10-17T14:37:11.805Z,5.97
2022-10-17T14:39:39.206Z,13.13
2022-10-17T14:42:06.079Z,6.55
2022-10-17T14:44:34.402Z,7.07
2022-10-17T14:47:30.376Z,7.15
2022-10-17T14:49:52.405Z,5.87
2022-10-17T14:52:19.370Z,6.68
2022-10-17T14:54:50.013Z,6.25
2022-10-17T14:57:27.668Z,9.95
2022-10-17T14:59:56.340Z,8.07
2022-10-17T15:02:29.549Z,11.57
2022-10-17T15:04:57.130Z,12.45
2022-10-17T15:07:24.266Z,7.03
2022-10-17T15:09:52.307Z,11.00
2022-10-17T15:12:21.704Z,8.77
2022-10-17T15:14:48.858Z,7.93
2022-10-17T15:17:20.666Z,12.35
2022-10-17T15:19:48.316Z,12.95
2022-10-17T15:22:16.215Z,6.90
2022-10-17T15:24:43.635Z,20.10
2022-10-17T15:27:16.434Z,11.68
2022-10-17T15:29:43.515Z,7.28
2022-10-17T15:32:10.685Z,15.80
2022-10-17T15:34:37.752Z,11.60
2022-10-17T15:37:05.736Z,13.98
2022-10-17T15:39:33.110Z,12.30
2022-10-17T15:42:00.067Z,13.05
2022-10-17T15:44:27.254Z,26.83
2022-10-17T15:46:55.708Z,13.00
2022-10-17T15:49:22.598Z,16.90
2022-10-17T15:51:55.128Z,16.33
2022-10-17T15:54:22.487Z,19.83
2022-10-17T15:56:53.539Z,16.87
2022-10-17T15:59:23.257Z,14.55
2022-10-17T16:01:50.426Z,19.73
2022-10-17T16:04:18.555Z,27.65
2022-10-17T16:06:49.251Z,19.60
2022-10-17T16:09:16.123Z,40.28
2022-10-17T16:11:46.031Z,46.05
2022-10-17T16:14:18.100Z,25.20
2022-10-17T16:16:48.222Z,31.23
2022-10-17T16:19:17.820Z,19.50
2022-10-17T16:21:47.548Z,25.23
2022-10-17T16:24:14.638Z,22.05
2022-10-17T16:26:43.888Z,23.30
2022-10-17T16:29:10.824Z,34.33
2022-10-17T16:31:45.636Z,26.85
2022-10-17T16:34:14.046Z,31.77
2022-10-17T16:36:43.525Z,38.53
2022-10-17T16:39:10.375Z,35.45
2022-10-17T16:41:38.948Z,43.17
2022-10-17T16:44:08.475Z,32.13
2022-10-17T16:46:37.086Z,28.02
2022-10-17T16:49:05.021Z,31.08
2022-10-17T16:51:33.792Z,40.70
2022-10-17T16:54:00.760Z,42.83
2022-10-17T16:56:32.613Z,52.05
2022-10-17T16:59:00.802Z,47.15
2022-10-17T17:01:29.383Z,37.03
2022-10-17T17:03:56.601Z,34.28
2022-10-17T17:06:26.713Z,33.80
2022-10-17T17:08:54.462Z,32.35
2022-10-17T17:11:22.908Z,31.90
2022-10-17T17:13:50.190Z,38.13
2022-10-17T17:16:21.454Z,35.33
2022-10-17T17:18:51.445Z,44.58
2022-10-17T17:21:18.541Z,32.90
2022-10-17T17:23:45.399Z,47.88
2022-10-17T17:26:20.784Z,42.53
2022-10-17T17:28:48.763Z,54.38
2022-10-17T17:31:19.261Z,48.03
2022-10-17T17:36:19.634Z,45.80
2022-10-17T17:38:46.963Z,41.47
2022-10-17T17:41:15.425Z,47.55
2022-10-17T17:43:43.406Z,40.38
2022-10-17T17:46:10.316Z,44.67
2022-10-17T17:48:38.890Z,46.28
2022-10-17T17:51:07.227Z,39.55
2022-10-17T17:53:34.794Z,43.65
2022-10-17T17:56:06.824Z,41.63
2022-10-17T17:58:34.635Z,48.13
2022-10-17T18:01:08.201Z,59.00
2022-10-17T18:03:35.345Z,69.18
2022-10-17T18:06:02.194Z,85.78
2022-10-17T18:08:29.023Z,56.83
2022-10-17T18:10:58.452Z,64.15
2022-10-17T18:13:25.294Z,53.78
2022-10-17T18:15:57.854Z,67.60
2022-10-17T18:18:26.246Z,81.18
2022-10-17T18:20:54.312Z,52.50
2022-10-17T18:23:22.221Z,45.47
2022-10-17T18:26:03.222Z,39.25
2022-10-17T18:28:30.516Z,37.05
2022-10-17T18:30:58.122Z,47.62
2022-10-17T18:33:25.383Z,34.00
2022-10-17T18:35:53.520Z,55.38
2022-10-17T18:38:22.107Z,51.20
2022-10-17T18:40:50.787Z,45.12
2022-10-17T18:43:17.757Z,50.08
2022-10-17T18:45:44.886Z,64.03
2022-10-17T18:48:11.751Z,64.25
2022-10-17T18:50:38.984Z,59.35
2022-10-17T18:53:06.150Z,62.00
2022-10-17T18:55:33.036Z,81.03
2022-10-17T18:58:00.682Z,85.32
2022-10-17T19:00:27.834Z,78.60
2022-10-17T19:02:54.671Z,69.93
2022-10-17T19:05:21.547Z,107.15
2022-10-17T19:07:50.235Z,75.37
2022-10-17T19:10:17.171Z,92.47
2022-10-17T19:12:44.026Z,55.42
2022-10-17T19:15:11.118Z,58.22
2022-10-17T19:17:37.990Z,82.20
2022-10-17T19:20:05.334Z,78.75
2022-10-17T19:22:33.155Z,83.05
2022-10-17T19:25:00.024Z,48.22
2022-10-17T19:27:26.929Z,67.70
2022-10-17T19:29:54.066Z,75.85
2022-10-17T19:32:22.838Z,61.13
2022-10-17T19:34:49.897Z,72.97
2022-10-17T19:37:17.014Z,71.30
2022-10-17T19:39:43.863Z,65.82
2022-10-17T19:42:10.993Z,58.87
2022-10-17T19:44:38.106Z,48.90
2022-10-17T19:47:04.953Z,57.45
2022-10-17T19:49:31.819Z,52.88
2022-10-17T19:51:58.933Z,61.72
2022-10-17T19:54:25.778Z,59.17
2022-10-17T19:56:52.623Z,57.00
2022-10-17T19:59:19.882Z,59.33
2022-10-17T20:01:46.847Z,57.55
2022-10-17T20:04:14.085Z,57.25
2022-10-17T20:06:41.419Z,52.72
2022-10-17T20:09:11.142Z,44.88
2022-10-17T20:11:49.223Z,39.80
2022-10-17T20:14:18.872Z,34.85
2022-10-17T20:16:50.098Z,44.17
2022-10-17T20:19:17.035Z,32.30
2022-10-17T20:21:46.907Z,37.00
2022-10-17T20:24:16.100Z,29.58
2022-10-17T20:26:46.378Z,36.17
2022-10-17T20:29:20.446Z,32.88
2022-10-17T20:31:47.992Z,38.42
2022-10-17T20:34:16.898Z,36.17
2022-10-17T20:36:46.970Z,33.08
2022-10-17T20:39:18.289Z,39.10
2022-10-17T20:41:48.434Z,39.88
2022-10-17T20:44:18.214Z,40.55
2022-10-17T20:47:00.603Z,36.83
2022-10-17T20:49:28.404Z,38.83
2022-10-17T20:51:55.500Z,38.67
2022-10-17T20:54:22.547Z,32.92
2022-10-17T20:56:49.456Z,37.47
2022-10-17T20:59:17.538Z,39.53
2022-10-17T21:01:47.563Z,42.78
2022-10-17T21:07:01.726Z,30.25
2022-10-17T21:09:28.669Z,36.65
2022-10-17T21:11:56.694Z,39.00
2022-10-17T21:14:24.804Z,36.55
2022-10-17T21:16:52.294Z,35.00
2022-10-17T21:19:19.675Z,37.58
2022-10-17T21:21:47.132Z,36.83
2022-10-17T21:24:17.314Z,36.40
2022-10-17T21:26:50.039Z,33.15
2022-10-17T21:29:17.148Z,41.42
2022-10-17T21:31:44.918Z,42.65
2022-10-17T21:34:24.935Z,40.50
2022-10-17T21:36:52.473Z,43.40
2022-10-17T21:39:19.784Z,37.50
2022-10-17T21:41:46.688Z,37.13
2022-10-17T21:44:18.779Z,32.38
2022-10-17T21:46:49.795Z,33.60
2022-10-17T21:49:21.489Z,31.70
2022-10-17T21:51:49.233Z,47.15
2022-10-17T21:54:20.537Z,39.53
2022-10-17T21:56:47.392Z,33.83
2022-10-17T21:59:17.057Z,32.15
2022-10-17T22:01:46.991Z,29.33
2022-10-17T22:04:18.762Z,34.35
2022-10-17T22:06:51.317Z,31.25
2022-10-17T22:09:25.272Z,38.75
2022-10-17T22:11:54.765Z,31.60
2022-10-17T22:14:23.523Z,32.17
2022-10-17T22:16:50.628Z,28.00
2022-10-17T22:19:21.999Z,31.15
2022-10-17T22:21:49.440Z,33.20
2022-10-17T22:26:48.615Z,36.00
2022-10-17T22:29:15.970Z,37.65
2022-10-17T22:31:43.039Z,29.70
2022-10-17T22:34:14.036Z,37.88
2022-10-17T22:36:41.914Z,35.28
2022-10-17T22:41:38.997Z,39.20
2022-10-17T22:44:06.501Z,29.87
2022-10-17T22:46:33.458Z,30.98
2022-10-17T22:49:00.313Z,36.28
2022-10-17T22:51:27.623Z,25.27
2022-10-17T22:53:54.516Z,29.83
2022-10-17T22:56:21.801Z,32.65
2022-10-17T22:59:08.681Z,30.52
2022-10-17T23:01:55.349Z,26.27
2022-10-17T23:04:22.467Z,26.95
2022-10-17T23:06:49.324Z,27.87
2022-10-17T23:09:19.039Z,30.77
2022-10-17T23:11:46.158Z,33.22
2022-10-17T23:14:15.046Z,33.40
2022-10-17T23:16:41.889Z,33.05
2022-10-17T23:19:10.844Z,31.75
2022-10-17T23:21:37.705Z,33.50
2022-10-17T23:24:04.801Z,27.42
2022-10-17T23:26:31.914Z,33.25
2022-10-17T23:28:58.807Z,41.70
2022-10-17T23:31:25.704Z,35.05
2022-10-17T23:33:52.816Z,33.65
2022-10-17T23:36:20.500Z,31.48
2022-10-17T23:38:47.887Z,26.75
2022-10-17T23:41:15.298Z,25.90
2022-10-17T23:43:42.486Z,31.30
2022-10-17T23:46:09.425Z,24.67
2022-10-17T23:48:38.439Z,24.75
2022-10-17T23:51:06.454Z,25.02
2022-10-17T23:53:33.340Z,23.25
2022-10-17T23:56:00.473Z,25.52
2022-10-17T23:58:27.478Z,28.20
